KCFV - Coffeyville, Kansas, USA
Distance from station: ENE 93mi, 150km
Updated: Sun, 09-May-2021 8:52am PDT
Overcast
Overcast
 Wind from NNW
Wind: NNW 17 mph , 28 km/h, Gust: 28 mph , 44 km/h
Temperature: 54°F , 12°C
Dew Point: 45°F , 7°C
Humidity: 72%
Barometer: 29.91 inHg , 1012.9 hPa
Clouds: Overcast
Visibility: 10 miles , 16 km
Cloud details: Overcast 1800 ft
2021/05/09 15:52 KCFV 091552Z AUTO 34015G24KT 10SM OVC018 12/07 A2991 RMK AO2 PK WND 33027/1537 PRESRR SLP126 T01220072
KIDP - Independence, Kansas, USA
Distance from station: NE 86mi, 138km
Updated: Sun, 09-May-2021 9:35am PDT
Overcast
Overcast
 Wind from N
Wind: N 16 mph , 26 km/h, Gust: 21 mph , 33 km/h
Temperature: 54°F , 12°C
Dew Point: 46°F , 8°C
Humidity: 77%
Barometer: 29.96 inHg , 1014.6 hPa
Clouds: Overcast
Visibility: 10 miles , 16 km
Cloud details: Overcast 1600 ft
2021/05/09 16:35 KIDP 091635Z AUTO 36014G18KT 10SM OVC016 12/08 A2996 RMK AO2 T01150082
 
KIAB - Mcconnell Afb, Kansas, USA
Distance from station: N 84mi, 135km
Updated: Sun, 09-May-2021 8:56am PDT
Overcast
Overcast
 Wind from NNE
Wind: NNE 25 mph , 41 km/h, Gust: 33 mph , 54 km/h
Temperature: 52°F , 11°C
Dew Point: 43°F , 6°C
Humidity: 72%
Barometer: 29.97 inHg , 1014.9 hPa
Clouds: Overcast
Visibility: 10 miles , 16 km
Cloud details: Mostly Cloudy 1500 ft
Overcast 2100 ft
2021/05/09 15:56 KIAB 091556Z AUTO 03022G29KT 10SM BKN015 OVC021 11/06 A2997 RMK AO2 BKN V OVC SLP145 T01080060
KICT - Wichita, Kansas, USA
Distance from station: NNW 88mi, 142km
Updated: Sun, 09-May-2021 8:53am PDT
Overcast
Overcast
 Wind from N
Wind: N 20 mph , 31 km/h, Gust: 26 mph , 43 km/h
Temperature: 52°F , 11°C
Dew Point: 43°F , 6°C
Humidity: 72%
Barometer: 29.98 inHg , 1015.2 hPa
Clouds: Overcast
Visibility: 10 miles , 16 km
Cloud details: Overcast 1700 ft
2021/05/09 15:53 KICT 091553Z 36017G23KT 10SM OVC017 11/06 A2998 RMK AO2 PK WND 01029/1534 SLP145 T01060056
 
KAAO - Wichita/Jabara, Kansas, USA
Distance from station: N 93mi, 149km
Updated: Sun, 09-May-2021 8:54am PDT
Overcast
Overcast
 Wind from N
Wind: N 20 mph , 31 km/h, Gust: 33 mph , 54 km/h
Temperature: 52°F , 11°C
Dew Point: 41°F , 5°C
Humidity: 67%
Barometer: 29.98 inHg , 1015.2 hPa
Clouds: Overcast
Visibility: 10 miles , 16 km
Cloud details: Overcast 1600 ft
2021/05/09 15:54 KAAO 091554Z AUTO 36017G29KT 10SM OVC016 11/05 A2998 RMK AO2 PK WND 01029/1548 SLP147 T01060050 $
KWLD - Winfield/Arkansa, Kansas, USA
Distance from station: N 52mi, 84km
Updated: Sun, 09-May-2021 8:54am PDT
Overcast
Overcast
 Wind from N
Wind: N 21 mph , 33 km/h, Gust: 31 mph , 50 km/h
Temperature: 55°F , 13°C
Dew Point: 45°F , 7°C
Humidity: 67%
Barometer: 29.97 inHg , 1014.9 hPa
Clouds: Overcast
Visibility: 10 miles , 16 km
Cloud details: Overcast 2200 ft
2021/05/09 15:54 KWLD 091554Z AUTO 35018G27KT 10SM OVC022 13/07 A2997 RMK AO2 PK WND 35030/1455 SLP142 T01280067
 
KAVK - Alva, Oklahoma, USA
Distance from station: WNW 94mi, 152km
Updated: Sun, 09-May-2021 9:35am PDT
Partly Cloudy
Partly Cloudy
 Wind from N
Wind: N 18 mph , 30 km/h, Gust: 29 mph , 46 km/h
Temperature: 57°F , 14°C
Dew Point: 43°F , 6°C
Humidity: 59%
Barometer: 30.02 inHg , 1016.6 hPa
Clouds: Partly Cloudy
Visibility: 10 miles , 16 km
Cloud details: Partly Cloudy 3000 ft
2021/05/09 16:35 KAVK 091635Z AUTO 01016G25KT 10SM SCT030 14/06 A3002 RMK AO2
KBVO - Bartlesville, Oklahoma, USA
Distance from station: ENE 61mi, 98km
Updated: Sun, 09-May-2021 8:53am PDT
Overcast
Overcast
 Wind from N
Wind: N 9 mph , 15 km/h, Gust: 21 mph , 33 km/h
Temperature: 55°F , 13°C
Dew Point: 46°F , 8°C
Humidity: 72%
Barometer: 29.94 inHg , 1013.9 hPa
Clouds: Overcast
Visibility: 10 miles , 16 km
Cloud details: Overcast 2100 ft
2021/05/09 15:53 KBVO 091553Z AUTO 36008G18KT 10SM OVC021 13/08 A2994 RMK AO2 SLP131 T01330083
 
KBKN - Blackwell, Oklahoma, USA
Distance from station: NW 29mi, 47km
Updated: Sun, 09-May-2021 9:35am PDT
Overcast
Overcast
 Wind from N
Wind: N 14 mph , 22 km/h, Gust: 25 mph , 41 km/h
Barometer: 29.99 inHg , 1015.6 hPa
Clouds: Overcast
Visibility: 10 miles , 16 km
Cloud details: Overcast 2400 ft
2021/05/09 16:35 KBKN 091635Z AUTO 35012G22KT 10SM OVC024 A2999 RMK AO2
KGCM - Claremore, Oklahoma, USA
Distance from station: E 86mi, 138km
Updated: Sun, 09-May-2021 9:35am PDT
Overcast
Overcast
 Wind from N
Wind: N 10 mph , 17 km/h, Gust: 17 mph , 28 km/h
Temperature: 55°F , 13°C
Dew Point: 46°F , 8°C
Humidity: 72%
Barometer: 29.93 inHg , 1013.5 hPa
Clouds: Overcast
Visibility: 10 miles , 16 km
Cloud details: Overcast 1600 ft
2021/05/09 16:35 KGCM 091635Z AUTO 36009G15KT 10SM OVC016 13/08 A2993 RMK AO2
 
KCQB - Chandler, Oklahoma, USA
Distance from station: SSE 50mi, 80km
Updated: Sun, 09-May-2021 9:15am PDT
Overcast
Overcast
 Wind from N
Wind: N 15 mph , 24 km/h, Gust: 22 mph , 35 km/h
Temperature: 55°F , 13°C
Dew Point: 46°F , 8°C
Humidity: 72%
Barometer: 29.95 inHg , 1014.2 hPa
Clouds: Overcast
Visibility: 10 miles , 16 km
Cloud details: Overcast 2100 ft
2021/05/09 16:15 KCQB 091615Z AUTO 35013G19KT 10SM OVC021 13/08 A2995 RMK AO2 T01350082
KCUH - Cushing, Oklahoma, USA
Distance from station: SSE 35mi, 57km
Updated: Sun, 09-May-2021 9:35am PDT
Overcast
Overcast
 Wind from NNW
Wind: NNW 16 mph , 26 km/h, Gust: 22 mph , 35 km/h
Temperature: 57°F , 14°C
Dew Point: 46°F , 8°C
Humidity: 67%
Barometer: 29.95 inHg , 1014.2 hPa
Clouds: Overcast
Visibility: 10 miles , 16 km
Cloud details: Overcast 2300 ft
2021/05/09 16:35 KCUH 091635Z AUTO 34014G19KT 10SM OVC023 14/08 A2995 RMK AO2 T01360081
 
KRQO - El Reno Muni, Oklahoma, USA
Distance from station: SW 85mi, 137km
Updated: Sun, 09-May-2021 9:35am PDT
Overcast
Overcast
 Wind from N
Wind: N 26 mph , 43 km/h, Gust: 32 mph , 52 km/h
Temperature: 55°F , 13°C
Dew Point: 45°F , 7°C
Humidity: 67%
Barometer: 30.00 inHg , 1015.9 hPa
Clouds: Overcast
Visibility: 10 miles , 16 km
Cloud details: Overcast 2200 ft
2021/05/09 16:35 KRQO 091635Z AUTO 35023G28KT 10SM OVC022 13/07 A3000 RMK AO2 T01330067
KEND - Enid/Vance Afb, Oklahoma, USA
Distance from station: W 50mi, 81km
Updated: Sun, 09-May-2021 8:56am PDT
Overcast
Overcast
 Wind from N
Wind: N 22 mph , 35 km/h, Gust: 31 mph , 50 km/h
Temperature: 52°F , 11°C
Dew Point: 43°F , 6°C
Humidity: 72%
Barometer: 29.98 inHg , 1015.2 hPa
Clouds: Overcast
Visibility: 10 miles , 16 km
Cloud details: Overcast 2100 ft
2021/05/09 15:56 KEND 091556Z AUTO 01019G27KT 10SM OVC021 11/06 A2998 RMK AO2 PK WND 01034/02 CIG 020 RWY17C SLP147 T01140057 $
 
KWDG - Enid/Woodring, Oklahoma, USA
Distance from station: W 42mi, 67km
Updated: Sun, 09-May-2021 8:45am PDT
Overcast
Overcast
 Wind from N
Wind: N 22 mph , 35 km/h, Gust: 35 mph , 56 km/h
Temperature: 52°F , 11°C
Dew Point: 43°F , 6°C
Humidity: 72%
Barometer: 29.98 inHg , 1015.2 hPa
Clouds: Overcast
Visibility: 10 miles , 16 km
Cloud details: Overcast 2100 ft
2021/05/09 15:45 KWDG 091545Z 36019G30KT 10SM OVC021 11/06 A2998
KGOK - Guthrie, Oklahoma, USA
Distance from station: SSW 44mi, 71km
Updated: Sun, 09-May-2021 8:53am PDT
Overcast
Overcast
 Wind from N
Wind: N 12 mph , 19 km/h, Gust: 22 mph , 35 km/h
Temperature: 54°F , 12°C
Dew Point: 45°F , 7°C
Humidity: 72%
Barometer: 29.96 inHg , 1014.6 hPa
Clouds: Overcast
Visibility: 10 miles , 16 km
Cloud details: Overcast 2200 ft
2021/05/09 15:53 KGOK 091553Z AUTO 35010G19KT 320V020 10SM OVC022 12/07 A2996 RMK AO2 SLP143 T01220072
 
KOUN - Norman/Westheime, Oklahoma, USA
Distance from station: SSW 84mi, 136km
Updated: Sun, 09-May-2021 8:45am PDT
Overcast
Overcast
 Wind from NW
Wind: NW 28 mph , 44 km/h, Gust: 35 mph , 56 km/h
Temperature: 57°F , 14°C
Dew Point: 46°F , 8°C
Humidity: 67%
Barometer: 29.92 inHg , 1013.2 hPa
Clouds: Overcast
Visibility: 10 miles , 16 km
Cloud details: Overcast 2100 ft
2021/05/09 15:45 KOUN 091545Z 32024G30KT 10SM OVC021 14/08 A2992
KOKC - Oklahoma City, Oklahoma, USA
Distance from station: SSW 78mi, 126km
Updated: Sun, 09-May-2021 8:52am PDT
Overcast
Overcast
 Wind from NNW
Wind: NNW 26 mph , 43 km/h, Gust: 32 mph , 52 km/h
Temperature: 55°F , 13°C
Dew Point: 45°F , 7°C
Humidity: 67%
Barometer: 29.94 inHg , 1013.9 hPa
Clouds: Overcast
Visibility: 10 miles , 16 km
Cloud details: Overcast 2200 ft
2021/05/09 15:52 KOKC 091552Z 34023G28KT 10SM OVC022 13/07 A2994 RMK AO2 PK WND 36030/1529 SLP128 T01330067
 
KPWA - Okla City/Wiley, Oklahoma, USA
Distance from station: SSW 70mi, 113km
Updated: Sun, 09-May-2021 8:53am PDT
Overcast
Overcast
 Wind from N
Wind: N 23 mph , 37 km/h, Gust: 35 mph , 56 km/h
Temperature: 55°F , 13°C
Dew Point: 43°F , 6°C
Humidity: 63%
Barometer: 29.95 inHg , 1014.2 hPa
Clouds: Overcast
Visibility: 10 miles , 16 km
Cloud details: Overcast 2100 ft
2021/05/09 15:53 KPWA 091553Z 36020G30KT 10SM OVC021 13/06 A2995 RMK AO2 PK WND 35030/1549 SLP131 T01280056
KRCE - Okla City/Page, Oklahoma, USA
Distance from station: SW 78mi, 126km
Updated: Sun, 09-May-2021 9:35am PDT
Overcast
Overcast
 Wind from N
Wind: N 21 mph , 33 km/h, Gust: 32 mph , 52 km/h
Temperature: 55°F , 13°C
Dew Point: 45°F , 7°C
Humidity: 67%
Barometer: 29.97 inHg , 1014.9 hPa
Clouds: Overcast
Visibility: 10 miles , 16 km
Cloud details: Overcast 2200 ft
2021/05/09 16:35 KRCE 091635Z AUTO 35018G28KT 10SM OVC022 13/07 A2997 RMK AO2
 
KOKM - Okmulgee, Oklahoma, USA
Distance from station: SE 79mi, 127km
Updated: Sun, 09-May-2021 9:35am PDT
Overcast
Overcast
 Wind from NNW
Wind: NNW 14 mph , 22 km/h, Gust: 23 mph , 37 km/h
Temperature: 59°F , 15°C
Dew Point: 48°F , 9°C
Humidity: 68%
Barometer: 29.92 inHg , 1013.2 hPa
Clouds: Overcast
Visibility: 10 miles , 16 km
Cloud details: Overcast 2000 ft
2021/05/09 16:35 KOKM 091635Z AUTO 34012G20KT 10SM OVC020 15/09 A2992 RMK AO2 T01470091
KPNC - Ponca City, Oklahoma, USA
Distance from station: N 22mi, 36km
Updated: Sun, 09-May-2021 8:53am PDT
Overcast
Overcast
 Wind from N
Wind: N 21 mph , 33 km/h, Gust: 26 mph , 43 km/h
Temperature: 57°F , 14°C
Dew Point: 45°F , 7°C
Humidity: 63%
Barometer: 29.96 inHg , 1014.6 hPa
Clouds: Overcast
Visibility: 10 miles , 16 km
Cloud details: Overcast 2400 ft
2021/05/09 15:53 KPNC 091553Z AUTO 36018G23KT 10SM OVC024 14/07 A2996 RMK AO2 PK WND 35026/1527 SLP137 T01390067
 
KSNL - Shawnee, Oklahoma, USA
Distance from station: S 74mi, 119km
Updated: Sun, 09-May-2021 9:35am PDT
Overcast
Overcast
 Wind from N
Wind: N 20 mph , 31 km/h, Gust: 26 mph , 43 km/h
Temperature: 57°F , 14°C
Dew Point: 43°F , 6°C
Humidity: 59%
Barometer: 29.95 inHg , 1014.2 hPa
Clouds: Overcast
Visibility: 10 miles , 16 km
Cloud details: Overcast 2100 ft
2021/05/09 16:35 KSNL 091635Z AUTO 35017G23KT 10SM OVC021 14/06 A2995 RMK AO2 T01380064
KSWO - Stillwater, Oklahoma, USA
Distance from station: S 17mi, 28km
Updated: Sun, 09-May-2021 8:53am PDT
Overcast
Overcast
 Wind from N
Wind: N 18 mph , 30 km/h, Gust: 28 mph , 44 km/h
Temperature: 55°F , 13°C
Dew Point: 45°F , 7°C
Humidity: 67%
Barometer: 29.95 inHg , 1014.2 hPa
Clouds: Overcast
Visibility: 10 miles , 16 km
Cloud details: Overcast 2000 ft
2021/05/09 15:53 KSWO 091553Z 35016G24KT 10SM OVC020 13/07 A2995 RMK AO2 SLP135 T01280072
 
KTIK - Tinker Afb, Oklahoma, USA
Distance from station: SSW 72mi, 115km
Updated: Sun, 09-May-2021 8:56am PDT
Overcast
Overcast
 Wind from N
Wind: N 25 mph , 41 km/h, Gust: 35 mph , 56 km/h
Temperature: 57°F , 14°C
Dew Point: 45°F , 7°C
Humidity: 63%
Barometer: 29.92 inHg , 1013.2 hPa
Clouds: Overcast
Visibility: 10 miles , 16 km
Cloud details: Overcast 2000 ft
2021/05/09 15:56 KTIK 091556Z AUTO 36022G30KT 10SM OVC020 14/07 A2992 RMK AO2 PK WND 36030/46 CIG 019 RWY13 SLP131 T01360069 $
KTUL - Tulsa, Oklahoma, USA
Distance from station: ESE 65mi, 105km
Updated: Sun, 09-May-2021 8:53am PDT
Overcast
Overcast
 Wind from NNW
Wind: NNW 16 mph , 26 km/h, Gust: 28 mph , 44 km/h
Temperature: 57°F , 14°C
Dew Point: 48°F , 9°C
Humidity: 72%
Barometer: 29.88 inHg , 1011.9 hPa
Clouds: Overcast
Visibility: 10 miles , 16 km
Cloud details: Overcast 1900 ft
2021/05/09 15:53 KTUL 091553Z 33014G24KT 10SM OVC019 14/09 A2988 RMK AO2 PK WND 32026/1520 SLP113 T01390089

Metar display script from Saratoga-Weather.org